createdAt,value
2023-03-11T00:00:00.236Z,8.20
2023-03-11T00:02:30.918Z,8.18
2023-03-11T00:05:01.629Z,8.15
2023-03-11T00:07:32.390Z,8.11
2023-03-11T00:10:03.020Z,8.10
2023-03-11T00:12:33.674Z,8.10
2023-03-11T00:15:04.684Z,8.06
2023-03-11T00:17:33.778Z,8.04
2023-03-11T00:20:05.363Z,8.03
2023-03-11T00:22:36.097Z,8.03
2023-03-11T00:25:10.031Z,8.02
2023-03-11T00:27:40.898Z,7.98
2023-03-11T00:30:14.852Z,7.96
2023-03-11T00:32:47.076Z,7.91
2023-03-11T00:35:19.610Z,7.88
2023-03-11T00:37:53.619Z,7.86
2023-03-11T00:40:27.209Z,7.88
2023-03-11T00:42:58.162Z,7.85
2023-03-11T00:45:27.742Z,7.84
2023-03-11T00:47:58.711Z,7.83
2023-03-11T00:50:28.892Z,7.79
2023-03-11T00:53:00.671Z,7.77
2023-03-11T00:55:33.517Z,7.77
2023-03-11T00:58:07.037Z,7.78
2023-03-11T01:00:37.683Z,7.78
2023-03-11T01:03:08.749Z,7.76
2023-03-11T01:05:39.675Z,7.75
2023-03-11T01:08:10.302Z,7.75
2023-03-11T01:10:40.972Z,7.74
2023-03-11T01:13:11.613Z,7.71
2023-03-11T01:15:42.588Z,7.69
2023-03-11T01:18:11.696Z,7.69
2023-03-11T01:20:42.381Z,7.67
2023-03-11T01:23:14.974Z,7.68
2023-03-11T01:25:45.702Z,7.68
2023-03-11T01:28:16.402Z,7.68
2023-03-11T01:30:47.065Z,7.68
2023-03-11T01:33:19.694Z,7.69
2023-03-11T01:35:50.430Z,7.69
2023-03-11T01:38:21.221Z,7.67
2023-03-11T01:40:53.006Z,7.68
2023-03-11T01:43:47.655Z,7.68
2023-03-11T01:46:21.644Z,7.68
2023-03-11T01:48:53.791Z,7.68
2023-03-11T01:51:28.455Z,7.64
2023-03-11T01:54:03.879Z,7.62
2023-03-11T01:56:35.575Z,7.61
2023-03-11T01:59:08.838Z,7.57
2023-03-11T02:01:43.934Z,7.53
2023-03-11T02:04:15.481Z,7.50
2023-03-11T02:06:46.339Z,7.47
2023-03-11T02:09:17.081Z,7.44
2023-03-11T02:11:47.788Z,7.41
2023-03-11T02:14:19.437Z,7.37
2023-03-11T02:16:50.142Z,7.33
2023-03-11T02:19:32.154Z,7.29
2023-03-11T02:22:03.246Z,7.21
2023-03-11T02:24:42.538Z,7.15
2023-03-11T02:27:16.531Z,7.10
2023-03-11T02:29:49.680Z,7.06
2023-03-11T02:32:21.294Z,6.99
2023-03-11T02:34:51.973Z,6.96
2023-03-11T02:37:22.641Z,6.96
2023-03-11T02:39:54.651Z,6.94
2023-03-11T02:42:28.822Z,6.91
2023-03-11T02:45:03.752Z,6.88
2023-03-11T02:47:37.647Z,6.82
2023-03-11T02:50:18.022Z,6.66
2023-03-11T02:52:49.877Z,6.50
2023-03-11T02:55:21.130Z,6.26
2023-03-11T02:57:50.316Z,5.96
2023-03-11T03:00:23.192Z,5.71
2023-03-11T03:02:53.916Z,5.53
2023-03-11T03:05:24.780Z,5.38
2023-03-11T03:07:55.841Z,5.27
2023-03-11T03:10:31.973Z,5.20
2023-03-11T03:13:02.702Z,5.14
2023-03-11T03:15:33.498Z,5.06
2023-03-11T03:18:04.265Z,4.96
2023-03-11T03:20:35.539Z,4.87
2023-03-11T03:23:06.247Z,4.81
2023-03-11T03:25:36.925Z,4.76
2023-03-11T03:28:07.950Z,4.68
2023-03-11T03:30:37.224Z,4.57
2023-03-11T03:33:08.281Z,4.47
2023-03-11T03:35:40.423Z,4.43
2023-03-11T03:38:11.436Z,4.34
2023-03-11T03:40:47.864Z,4.27
2023-03-11T03:43:18.544Z,4.17
2023-03-11T03:45:56.956Z,4.16
2023-03-11T03:48:28.237Z,4.13
2023-03-11T03:51:05.096Z,4.06
2023-03-11T03:53:36.987Z,4.03
2023-03-11T03:56:10.866Z,3.93
2023-03-11T03:58:41.581Z,3.80
2023-03-11T04:01:12.885Z,3.69
2023-03-11T04:03:44.043Z,3.54
2023-03-11T04:06:19.440Z,3.43
2023-03-11T04:08:50.647Z,3.39
2023-03-11T04:11:21.784Z,3.29
2023-03-11T04:13:50.912Z,3.19
2023-03-11T04:16:23.841Z,3.09
2023-03-11T04:18:54.604Z,3.00
2023-03-11T04:21:25.327Z,2.90
2023-03-11T04:23:55.948Z,2.81
2023-03-11T04:26:27.536Z,2.74
2023-03-11T04:28:58.209Z,2.66
2023-03-11T04:31:29.115Z,2.64
2023-03-11T04:33:59.752Z,2.64
2023-03-11T04:36:30.493Z,2.61
2023-03-11T04:39:01.123Z,2.61
2023-03-11T04:41:31.779Z,2.54
2023-03-11T04:44:02.389Z,2.44
2023-03-11T04:46:33.294Z,2.34
2023-03-11T04:49:03.958Z,2.30
2023-03-11T04:51:34.736Z,2.27
2023-03-11T04:54:05.740Z,2.25
2023-03-11T04:56:34.908Z,2.20
2023-03-11T04:59:05.548Z,2.15
2023-03-11T05:01:36.304Z,2.07
2023-03-11T05:04:07.170Z,2.00
2023-03-11T05:06:37.837Z,1.91
2023-03-11T05:09:08.506Z,1.84
2023-03-11T05:11:39.193Z,1.77
2023-03-11T05:14:09.782Z,1.73
2023-03-11T05:16:40.444Z,1.74
2023-03-11T05:19:11.116Z,1.74
2023-03-11T05:21:41.825Z,1.74
2023-03-11T05:24:12.843Z,1.74
2023-03-11T05:26:43.681Z,1.71
2023-03-11T05:29:14.343Z,1.67
2023-03-11T05:31:45.016Z,1.64
2023-03-11T05:34:16.030Z,1.59
2023-03-11T05:36:46.809Z,1.56
2023-03-11T05:39:17.425Z,1.51
2023-03-11T05:41:48.711Z,1.49
2023-03-11T05:44:19.321Z,1.48
2023-03-11T05:46:50.176Z,1.38
2023-03-11T05:49:20.889Z,1.37
2023-03-11T05:51:52.525Z,1.34
2023-03-11T05:54:23.160Z,1.27
2023-03-11T05:56:53.823Z,1.24
2023-03-11T05:59:24.936Z,1.22
2023-03-11T06:01:55.684Z,1.22
2023-03-11T06:04:26.526Z,1.23
2023-03-11T06:06:57.287Z,1.18
2023-03-11T06:09:28.524Z,1.13
2023-03-11T06:11:59.321Z,1.13
2023-03-11T06:14:30.047Z,1.11
2023-03-11T06:17:00.904Z,1.10
2023-03-11T06:19:31.572Z,1.10
2023-03-11T06:22:03.012Z,1.07
2023-03-11T06:24:33.690Z,1.07
2023-03-11T06:27:04.662Z,1.08
2023-03-11T06:29:35.341Z,1.08
2023-03-11T06:32:06.685Z,1.09
2023-03-11T06:34:37.314Z,1.08
2023-03-11T06:37:08.008Z,1.07
2023-03-11T06:39:38.649Z,1.10
2023-03-11T06:42:12.887Z,1.13
2023-03-11T06:44:43.537Z,1.12
2023-03-11T06:47:14.264Z,1.11
2023-03-11T06:49:44.943Z,1.11
2023-03-11T06:52:15.708Z,1.12
2023-03-11T06:54:46.762Z,1.14
2023-03-11T06:57:16.186Z,1.16
2023-03-11T06:59:46.828Z,1.16
2023-03-11T07:02:17.699Z,1.18
2023-03-11T07:04:50.781Z,1.22
2023-03-11T07:07:21.762Z,1.26
2023-03-11T07:09:54.525Z,1.29
2023-03-11T07:12:25.440Z,1.25
2023-03-11T07:14:58.815Z,1.21
2023-03-11T07:17:29.636Z,1.17
2023-03-11T07:20:00.621Z,1.17
2023-03-11T07:22:30.079Z,1.22
2023-03-11T07:25:00.808Z,1.23
2023-03-11T07:27:32.006Z,1.24
2023-03-11T07:30:04.331Z,1.29
2023-03-11T07:32:35.046Z,1.31
2023-03-11T07:35:08.661Z,1.31
2023-03-11T07:37:39.455Z,1.36
2023-03-11T07:40:13.162Z,1.40
2023-03-11T07:42:43.830Z,1.42
2023-03-11T07:45:15.325Z,1.47
2023-03-11T07:47:46.263Z,1.53
2023-03-11T07:50:19.545Z,1.59
2023-03-11T07:52:50.319Z,1.67
2023-03-11T07:55:21.565Z,1.69
2023-03-11T07:57:52.389Z,1.72
2023-03-11T08:00:23.607Z,1.71
2023-03-11T08:02:54.275Z,1.71
2023-03-11T08:05:25.234Z,1.71
2023-03-11T08:07:56.029Z,1.68
2023-03-11T08:10:26.911Z,1.62
2023-03-11T08:12:57.690Z,1.58
2023-03-11T08:15:28.334Z,1.61
2023-03-11T08:17:59.268Z,1.59
2023-03-11T08:20:30.014Z,1.62
2023-03-11T08:23:00.853Z,1.68
2023-03-11T08:25:31.822Z,1.74
2023-03-11T08:28:01.154Z,1.78
2023-03-11T08:30:33.386Z,1.76
2023-03-11T08:33:08.041Z,1.78
2023-03-11T08:35:39.006Z,1.84
2023-03-11T08:38:10.169Z,1.92
2023-03-11T08:40:41.117Z,2.04
2023-03-11T08:43:14.593Z,2.15
2023-03-11T08:45:45.658Z,2.23
2023-03-11T08:48:16.342Z,2.28
2023-03-11T08:50:53.955Z,2.35
2023-03-11T08:53:25.784Z,2.36
2023-03-11T08:55:56.658Z,2.33
2023-03-11T08:58:27.492Z,2.24
2023-03-11T09:00:58.180Z,2.22
2023-03-11T09:03:30.715Z,2.27
2023-03-11T09:06:03.154Z,2.31
2023-03-11T09:08:34.730Z,2.30
2023-03-11T09:11:04.109Z,2.29
2023-03-11T09:13:35.370Z,2.30
2023-03-11T09:16:07.464Z,2.31
2023-03-11T09:18:38.191Z,2.30
2023-03-11T09:21:09.678Z,2.28
2023-03-11T09:23:42.884Z,2.31
2023-03-11T09:26:15.150Z,2.42
2023-03-11T09:28:44.402Z,2.46
2023-03-11T09:31:15.268Z,2.52
2023-03-11T09:33:46.851Z,2.50
2023-03-11T09:36:19.322Z,2.50
2023-03-11T09:38:50.501Z,2.54
2023-03-11T09:41:33.903Z,2.53
2023-03-11T09:44:16.149Z,2.45
2023-03-11T09:47:34.422Z,2.36
2023-03-11T09:50:33.705Z,2.27
2023-03-11T09:53:17.888Z,2.21
2023-03-11T09:55:52.264Z,2.13
2023-03-11T09:58:31.828Z,2.06
2023-03-11T10:01:03.409Z,2.08
2023-03-11T10:03:39.356Z,2.16
2023-03-11T10:06:22.081Z,2.25
2023-03-11T10:09:02.835Z,2.39
2023-03-11T10:11:53.306Z,2.57
2023-03-11T10:14:37.744Z,2.72
2023-03-11T10:17:19.613Z,2.76
2023-03-11T10:19:59.609Z,2.88
2023-03-11T10:22:40.436Z,2.93
2023-03-11T10:25:16.667Z,2.98
2023-03-11T10:27:51.984Z,2.96
2023-03-11T10:30:29.610Z,3.01
2023-03-11T10:33:06.397Z,3.11
2023-03-11T10:35:40.884Z,3.13
2023-03-11T10:38:19.032Z,3.07
2023-03-11T10:40:53.726Z,2.91
2023-03-11T10:43:29.126Z,2.86
2023-03-11T10:46:00.286Z,2.81
2023-03-11T10:48:30.996Z,2.81
2023-03-11T10:51:11.118Z,2.83
2023-03-11T10:53:49.777Z,2.82
2023-03-11T10:56:32.715Z,2.71
2023-03-11T10:59:05.874Z,2.73
2023-03-11T11:01:36.590Z,2.81
2023-03-11T11:04:28.198Z,2.92
2023-03-11T11:07:19.091Z,2.96
2023-03-11T11:10:13.619Z,3.06
2023-03-11T11:12:54.776Z,3.15
2023-03-11T11:15:28.762Z,3.10
2023-03-11T11:18:02.238Z,3.11
2023-03-11T11:20:34.029Z,3.21
2023-03-11T11:23:05.671Z,3.34
2023-03-11T11:25:38.173Z,3.58
2023-03-11T11:28:18.261Z,3.71
2023-03-11T11:30:57.176Z,3.75
2023-03-11T11:33:30.976Z,3.77
2023-03-11T11:36:04.819Z,3.68
2023-03-11T11:38:35.985Z,3.68
2023-03-11T11:41:05.599Z,3.69
2023-03-11T11:43:46.389Z,3.58
2023-03-11T11:46:22.603Z,3.47
2023-03-11T11:49:02.683Z,3.39
2023-03-11T11:51:36.566Z,3.28
2023-03-11T11:54:16.692Z,3.18
2023-03-11T11:56:47.604Z,3.11
2023-03-11T11:59:20.961Z,3.05
2023-03-11T12:02:04.395Z,3.02
2023-03-11T12:04:46.738Z,3.05
2023-03-11T12:07:39.349Z,3.08
2023-03-11T12:10:24.153Z,3.19
2023-03-11T12:13:18.266Z,3.22
2023-03-11T12:15:53.834Z,3.18
2023-03-11T12:18:31.455Z,3.24
2023-03-11T12:21:09.961Z,3.34
2023-03-11T12:23:55.038Z,3.34
2023-03-11T12:26:28.091Z,3.38
2023-03-11T12:29:02.995Z,3.41
2023-03-11T12:31:38.223Z,3.44
2023-03-11T12:34:13.477Z,3.53
2023-03-11T12:36:46.288Z,3.59
2023-03-11T12:39:24.605Z,3.66
2023-03-11T12:42:21.599Z,3.75
2023-03-11T12:44:52.612Z,3.76
2023-03-11T12:47:23.100Z,3.97
2023-03-11T12:49:55.607Z,4.10
2023-03-11T12:52:28.463Z,4.34
2023-03-11T12:55:34.831Z,4.44
2023-03-11T12:58:32.286Z,4.55
2023-03-11T13:01:26.190Z,4.76
2023-03-11T13:04:04.737Z,4.50
2023-03-11T13:06:58.558Z,4.30
2023-03-11T13:09:31.435Z,4.46
2023-03-11T13:12:02.423Z,4.48
2023-03-11T13:14:34.039Z,4.49
2023-03-11T13:17:26.803Z,4.58
2023-03-11T13:19:59.370Z,4.53
2023-03-11T13:23:13.591Z,4.47
2023-03-11T13:26:02.608Z,4.37
2023-03-11T13:28:52.734Z,4.55
2023-03-11T13:31:37.112Z,4.79
2023-03-11T13:34:16.170Z,5.01
2023-03-11T13:37:05.119Z,5.06
2023-03-11T13:39:53.272Z,5.04
2023-03-11T13:42:30.182Z,4.93
2023-03-11T13:45:02.025Z,4.67
2023-03-11T13:47:35.472Z,4.53
2023-03-11T13:50:17.568Z,4.44
2023-03-11T13:52:52.452Z,4.31
2023-03-11T13:55:28.415Z,4.29
2023-03-11T13:57:59.308Z,4.33
2023-03-11T14:00:38.400Z,4.28
2023-03-11T14:03:14.841Z,4.25
2023-03-11T14:05:48.060Z,4.21
2023-03-11T14:08:23.939Z,4.14
2023-03-11T14:10:56.603Z,4.05
2023-03-11T14:13:28.661Z,4.07
2023-03-11T14:16:07.885Z,4.00
2023-03-11T14:18:41.114Z,3.85
2023-03-11T14:21:16.491Z,3.76
2023-03-11T14:23:49.782Z,3.73
2023-03-11T14:26:23.089Z,3.74
2023-03-11T14:28:55.081Z,3.78
2023-03-11T14:31:31.890Z,3.78
2023-03-11T14:34:04.098Z,3.79
2023-03-11T14:36:43.704Z,3.79
2023-03-11T14:39:29.399Z,3.83
2023-03-11T14:42:06.808Z,3.82
2023-03-11T14:44:42.040Z,3.85
2023-03-11T14:47:18.834Z,3.83
2023-03-11T14:49:51.810Z,3.83
2023-03-11T14:52:31.231Z,3.83
2023-03-11T14:55:05.646Z,3.79
2023-03-11T14:57:40.404Z,3.89
2023-03-11T15:00:18.037Z,3.96
2023-03-11T15:02:59.743Z,3.89
2023-03-11T15:05:39.437Z,3.84
2023-03-11T15:08:11.126Z,3.86
2023-03-11T15:11:02.964Z,3.89
2023-03-11T15:13:34.383Z,3.79
2023-03-11T15:16:04.741Z,3.75
2023-03-11T15:18:38.270Z,3.74
2023-03-11T15:21:15.772Z,3.79
2023-03-11T15:23:51.388Z,3.94
2023-03-11T15:26:25.462Z,4.14
2023-03-11T15:28:58.772Z,4.36
2023-03-11T15:31:34.795Z,4.43
2023-03-11T15:34:25.544Z,4.44
2023-03-11T15:37:04.873Z,4.48
2023-03-11T15:39:47.156Z,4.48
2023-03-11T15:42:20.682Z,4.45
2023-03-11T15:45:03.035Z,4.37
2023-03-11T15:47:33.661Z,4.21
2023-03-11T15:50:43.053Z,4.15
2023-03-11T15:53:21.472Z,4.00
2023-03-11T15:55:53.087Z,3.93
2023-03-11T15:58:23.895Z,3.81
2023-03-11T16:01:00.066Z,3.68
2023-03-11T16:03:31.549Z,3.64
2023-03-11T16:06:02.434Z,3.58
2023-03-11T16:08:33.168Z,3.50
2023-03-11T16:11:04.157Z,3.43
2023-03-11T16:13:34.793Z,3.40
2023-03-11T16:16:06.230Z,3.33
2023-03-11T16:18:36.980Z,3.22
2023-03-11T16:21:13.612Z,3.10
2023-03-11T16:23:51.547Z,2.99
2023-03-11T16:26:23.807Z,2.89
2023-03-11T16:28:54.537Z,2.79
2023-03-11T16:31:25.240Z,2.69
2023-03-11T16:33:55.880Z,2.62
2023-03-11T16:36:26.716Z,2.55
2023-03-11T16:38:57.373Z,2.46
2023-03-11T16:41:28.193Z,2.41
2023-03-11T16:43:58.752Z,2.36
2023-03-11T16:46:29.453Z,2.28
2023-03-11T16:49:00.173Z,2.24
2023-03-11T16:51:30.886Z,2.16
2023-03-11T16:54:01.707Z,2.09
2023-03-11T16:56:32.420Z,2.03
2023-03-11T16:59:03.085Z,1.97
2023-03-11T17:01:33.839Z,1.89
2023-03-11T17:04:04.840Z,1.83
2023-03-11T17:06:35.525Z,1.78
2023-03-11T17:09:06.152Z,1.77
2023-03-11T17:11:37.228Z,1.78
2023-03-11T17:14:15.906Z,1.78
2023-03-11T17:16:47.271Z,1.76
2023-03-11T17:19:17.833Z,1.75
2023-03-11T17:21:48.528Z,1.69
2023-03-11T17:24:19.381Z,1.67
2023-03-11T17:26:50.113Z,1.65
2023-03-11T17:29:20.755Z,1.63
2023-03-11T17:31:51.607Z,1.60
2023-03-11T17:34:21.428Z,1.54
2023-03-11T17:36:52.135Z,1.51
2023-03-11T17:39:22.819Z,1.48
2023-03-11T17:41:53.545Z,1.47
2023-03-11T17:44:24.335Z,1.47
2023-03-11T17:46:55.128Z,1.43
2023-03-11T17:49:26.235Z,1.36
2023-03-11T17:51:55.323Z,1.31
2023-03-11T17:54:26.008Z,1.27
2023-03-11T17:56:57.299Z,1.26
2023-03-11T17:59:27.978Z,1.23
2023-03-11T18:02:00.460Z,1.17
2023-03-11T18:04:31.304Z,1.16
2023-03-11T18:07:02.014Z,1.14
2023-03-11T18:09:32.841Z,1.12
2023-03-11T18:12:04.345Z,1.10
2023-03-11T18:14:35.808Z,1.10
2023-03-11T18:17:06.692Z,1.09
2023-03-11T18:19:37.773Z,1.09
2023-03-11T18:22:08.516Z,1.04
2023-03-11T18:24:39.183Z,1.00
2023-03-11T18:27:10.019Z,0.93
2023-03-11T18:29:41.014Z,0.89
2023-03-11T18:32:11.944Z,0.88
2023-03-11T18:34:42.602Z,0.86
2023-03-11T18:37:13.222Z,0.84
2023-03-11T18:39:43.808Z,0.82
2023-03-11T18:42:14.740Z,0.80
2023-03-11T18:44:45.450Z,0.79
2023-03-11T18:47:16.418Z,0.79
2023-03-11T18:49:47.355Z,0.77
2023-03-11T18:52:18.020Z,0.79
2023-03-11T18:54:48.676Z,0.80
2023-03-11T18:57:19.435Z,0.78
2023-03-11T18:59:48.929Z,0.77
2023-03-11T19:02:19.642Z,0.73
2023-03-11T19:04:50.479Z,0.71
2023-03-11T19:07:21.325Z,0.66
2023-03-11T19:09:51.970Z,0.63
2023-03-11T19:12:22.661Z,0.60
2023-03-11T19:14:53.340Z,0.58
2023-03-11T19:17:24.889Z,0.57
2023-03-11T19:19:56.209Z,0.55
2023-03-11T19:22:27.042Z,0.55
2023-03-11T19:24:57.676Z,0.55
2023-03-11T19:27:28.324Z,0.53
2023-03-11T19:29:59.474Z,0.48
2023-03-11T19:32:30.183Z,0.46
2023-03-11T19:35:00.793Z,0.44
2023-03-11T19:37:33.039Z,0.44
2023-03-11T19:40:03.986Z,0.43
2023-03-11T19:42:36.398Z,0.41
2023-03-11T19:45:09.813Z,0.41
2023-03-11T19:47:40.856Z,0.42
2023-03-11T19:50:12.656Z,0.43
2023-03-11T19:52:43.350Z,0.41
2023-03-11T19:55:14.509Z,0.39
2023-03-11T19:57:45.303Z,0.38
2023-03-11T20:00:16.802Z,0.38
2023-03-11T20:02:47.549Z,0.38
2023-03-11T20:05:18.356Z,0.34
2023-03-11T20:07:49.176Z,0.31
2023-03-11T20:10:20.524Z,0.30
2023-03-11T20:13:01.706Z,0.30
2023-03-11T20:15:33.706Z,0.28
2023-03-11T20:18:02.902Z,0.27
2023-03-11T20:20:37.164Z,0.26
2023-03-11T20:23:07.958Z,0.23
2023-03-11T20:25:41.084Z,0.22
2023-03-11T20:28:11.970Z,0.18
2023-03-11T20:30:42.676Z,0.17
2023-03-11T20:33:13.392Z,0.17
2023-03-11T20:35:44.084Z,0.14
2023-03-11T20:38:14.948Z,0.12
2023-03-11T20:40:55.144Z,0.12
2023-03-11T20:43:25.963Z,0.09
2023-03-11T20:45:57.555Z,0.08
2023-03-11T20:48:28.819Z,0.05
2023-03-11T20:51:02.162Z,0.02
2023-03-11T20:53:33.358Z,-0.02
2023-03-11T20:56:09.609Z,-0.03
2023-03-11T20:58:40.820Z,-0.01
2023-03-11T21:01:16.774Z,-0.02
2023-03-11T21:03:50.085Z,-0.03
2023-03-11T21:06:23.220Z,0.01
2023-03-11T21:08:54.971Z,0.03
2023-03-11T21:11:26.631Z,0.05
2023-03-11T21:13:57.326Z,0.05
2023-03-11T21:16:28.548Z,0.02
2023-03-11T21:18:59.330Z,0.00
2023-03-11T21:21:30.058Z,-0.01
2023-03-11T21:24:00.896Z,-0.02
2023-03-11T21:26:31.737Z,-0.04
2023-03-11T21:29:02.925Z,-0.07
2023-03-11T21:31:34.404Z,-0.08
2023-03-11T21:34:05.200Z,-0.08
2023-03-11T21:36:36.090Z,-0.07
2023-03-11T21:39:07.071Z,-0.08
2023-03-11T21:41:37.744Z,-0.10
2023-03-11T21:44:08.642Z,-0.13
2023-03-11T21:46:39.665Z,-0.14
2023-03-11T21:49:10.443Z,-0.14
2023-03-11T21:51:41.198Z,-0.14
2023-03-11T21:54:11.872Z,-0.12
2023-03-11T21:56:42.727Z,-0.13
2023-03-11T21:59:13.422Z,-0.14
2023-03-11T22:01:44.175Z,-0.14
2023-03-11T22:04:15.160Z,-0.16
2023-03-11T22:06:45.891Z,-0.17
2023-03-11T22:09:16.685Z,-0.17
2023-03-11T22:11:48.617Z,-0.17
2023-03-11T22:14:19.395Z,-0.18
2023-03-11T22:16:50.504Z,-0.17
2023-03-11T22:19:19.816Z,-0.14
2023-03-11T22:21:50.623Z,-0.15
2023-03-11T22:24:21.498Z,-0.16
2023-03-11T22:26:52.180Z,-0.16
2023-03-11T22:29:22.879Z,-0.16
2023-03-11T22:31:53.700Z,-0.19
2023-03-11T22:34:24.402Z,-0.19
2023-03-11T22:36:55.007Z,-0.17
2023-03-11T22:39:25.721Z,-0.15
2023-03-11T22:41:56.368Z,-0.18
2023-03-11T22:44:27.209Z,-0.21
2023-03-11T22:46:57.883Z,-0.21
2023-03-11T22:49:28.653Z,-0.17
2023-03-11T22:51:59.418Z,-0.18
2023-03-11T22:54:30.161Z,-0.22
2023-03-11T22:57:00.773Z,-0.25
2023-03-11T22:59:31.484Z,-0.27
2023-03-11T23:02:02.214Z,-0.29
2023-03-11T23:04:32.892Z,-0.26
2023-03-11T23:07:03.503Z,-0.28
2023-03-11T23:09:34.236Z,-0.29
2023-03-11T23:12:07.666Z,-0.30
2023-03-11T23:14:45.029Z,-0.28
2023-03-11T23:17:15.942Z,-0.27
2023-03-11T23:19:46.621Z,-0.29
2023-03-11T23:22:17.244Z,-0.31
2023-03-11T23:24:48.014Z,-0.29
2023-03-11T23:27:18.650Z,-0.31
2023-03-11T23:29:49.325Z,-0.33
2023-03-11T23:32:20.019Z,-0.34
2023-03-11T23:34:50.730Z,-0.36
2023-03-11T23:37:21.435Z,-0.37
2023-03-11T23:39:52.240Z,-0.37
2023-03-11T23:42:26.239Z,-0.37
2023-03-11T23:44:57.552Z,-0.36
2023-03-11T23:47:26.818Z,-0.38
2023-03-11T23:49:57.545Z,-0.37
2023-03-11T23:52:28.193Z,-0.37
2023-03-11T23:54:58.826Z,-0.36
2023-03-11T23:57:29.480Z,-0.36
